createdAt,value
2022-12-11T00:01:24.276Z,-1.33
2022-12-11T00:05:26.235Z,-1.34
2022-12-11T00:09:28.649Z,-1.39
2022-12-11T00:13:30.577Z,-1.44
2022-12-11T00:17:32.617Z,-1.43
2022-12-11T00:21:34.898Z,-1.40
2022-12-11T00:25:45.855Z,-1.41
2022-12-11T00:29:47.786Z,-1.41
2022-12-11T00:33:50.776Z,-1.39
2022-12-11T00:37:53.462Z,-1.37
2022-12-11T00:41:55.444Z,-1.37
2022-12-11T00:45:57.799Z,-1.39
2022-12-11T00:49:59.843Z,-1.39
2022-12-11T00:54:03.207Z,-1.40
2022-12-11T00:58:05.191Z,-1.41
2022-12-11T01:02:07.133Z,-1.41
2022-12-11T01:06:14.650Z,-1.41
2022-12-11T01:10:26.301Z,-1.41
2022-12-11T01:14:28.358Z,-1.45
2022-12-11T01:18:30.297Z,-1.49
2022-12-11T01:22:32.287Z,-1.51
2022-12-11T01:26:34.298Z,-1.53
2022-12-11T01:30:36.694Z,-1.55
2022-12-11T01:34:38.810Z,-1.58
2022-12-11T01:38:41.254Z,-1.61
2022-12-11T01:42:43.631Z,-1.61
2022-12-11T01:46:45.569Z,-1.60
2022-12-11T01:50:54.102Z,-1.60
2022-12-11T01:54:56.130Z,-1.60
2022-12-11T01:59:06.008Z,-1.64
2022-12-11T02:03:08.521Z,-1.66
2022-12-11T02:07:10.432Z,-1.68
2022-12-11T02:11:25.336Z,-1.72
2022-12-11T02:15:30.226Z,-1.72
2022-12-11T02:19:48.967Z,-1.74
2022-12-11T02:23:56.858Z,-1.74
2022-12-11T02:28:26.621Z,-1.71
2022-12-11T02:32:35.950Z,-1.74
2022-12-11T02:36:43.127Z,-1.73
2022-12-11T02:40:49.242Z,-1.73
2022-12-11T02:44:54.036Z,-1.77
2022-12-11T02:48:57.079Z,-1.81
2022-12-11T02:53:01.977Z,-1.84
2022-12-11T02:57:11.574Z,-1.84
2022-12-11T03:01:13.758Z,-1.84
2022-12-11T03:05:15.853Z,-1.86
2022-12-11T03:09:17.792Z,-1.84
2022-12-11T03:13:22.353Z,-1.82
2022-12-11T03:17:33.728Z,-1.84
2022-12-11T03:21:54.213Z,-1.86
2022-12-11T03:26:05.938Z,-1.87
2022-12-11T03:30:12.431Z,-1.88
2022-12-11T03:34:28.550Z,-1.92
2022-12-11T03:38:56.771Z,-1.91
2022-12-11T03:43:00.311Z,-1.92
2022-12-11T03:47:06.569Z,-1.90
2022-12-11T03:51:09.219Z,-1.93
2022-12-11T03:55:14.756Z,-1.92
2022-12-11T03:59:16.771Z,-1.89
2022-12-11T04:03:19.184Z,-1.87
2022-12-11T04:07:21.339Z,-1.90
2022-12-11T04:11:35.430Z,-1.93
2022-12-11T04:15:39.415Z,-1.92
2022-12-11T04:20:00.069Z,-1.93
2022-12-11T04:24:17.288Z,-1.96
2022-12-11T04:28:19.273Z,-1.93
2022-12-11T04:32:21.197Z,-1.93
2022-12-11T04:36:23.253Z,-1.96
2022-12-11T04:40:25.234Z,-1.99
2022-12-11T04:44:27.122Z,-2.00
2022-12-11T04:48:29.495Z,-2.01
2022-12-11T04:52:31.524Z,-2.05
2022-12-11T04:56:33.507Z,-2.09
2022-12-11T05:00:35.442Z,-2.09
2022-12-11T05:04:37.387Z,-2.13
2022-12-11T05:08:41.461Z,-2.18
2022-12-11T05:12:43.383Z,-2.19
2022-12-11T05:16:45.490Z,-2.20
2022-12-11T05:20:58.983Z,-2.23
2022-12-11T05:25:00.974Z,-2.24
2022-12-11T05:29:03.011Z,-2.25
2022-12-11T05:33:04.904Z,-2.30
2022-12-11T05:37:07.278Z,-2.34
2022-12-11T05:41:13.537Z,-2.31
2022-12-11T05:45:15.459Z,-2.29
2022-12-11T05:49:19.848Z,-2.31
2022-12-11T05:53:22.222Z,-2.33
2022-12-11T05:57:24.153Z,-2.33
2022-12-11T06:01:29.373Z,-2.33
2022-12-11T06:05:31.269Z,-2.35
2022-12-11T06:09:33.253Z,-2.40
2022-12-11T06:13:35.579Z,-2.43
2022-12-11T06:17:37.513Z,-2.42
2022-12-11T06:21:39.443Z,-2.46
2022-12-11T06:25:41.388Z,-2.45
2022-12-11T06:29:43.351Z,-2.44
2022-12-11T06:33:45.483Z,-2.49
2022-12-11T06:37:47.339Z,-2.52
2022-12-11T06:41:49.286Z,-2.53
2022-12-11T06:45:51.598Z,-2.56
2022-12-11T06:49:54.039Z,-2.59
2022-12-11T06:53:56.944Z,-2.64
2022-12-11T06:57:58.863Z,-2.69
2022-12-11T07:02:00.822Z,-2.74
2022-12-11T07:06:03.088Z,-2.74
2022-12-11T07:10:08.297Z,-2.75
2022-12-11T07:14:10.792Z,-2.80
2022-12-11T07:18:12.735Z,-2.84
2022-12-11T07:22:14.814Z,-2.82
2022-12-11T07:26:19.871Z,-2.83
2022-12-11T07:30:21.915Z,-2.86
2022-12-11T07:34:23.932Z,-2.89
2022-12-11T07:38:26.017Z,-2.89
2022-12-11T07:42:28.357Z,-2.89
2022-12-11T07:46:33.122Z,-2.89
2022-12-11T07:50:39.575Z,-2.92
2022-12-11T07:54:42.283Z,-2.93
2022-12-11T07:58:44.745Z,-2.92
2022-12-11T08:02:46.803Z,-2.90
2022-12-11T08:06:49.438Z,-2.86
2022-12-11T08:10:51.814Z,-2.90
2022-12-11T08:14:53.898Z,-2.92
2022-12-11T08:18:56.005Z,-2.93
2022-12-11T08:22:59.383Z,-2.90
2022-12-11T08:27:01.629Z,-2.92
2022-12-11T08:31:06.285Z,-2.96
2022-12-11T08:35:09.306Z,-2.95
2022-12-11T08:39:11.601Z,-2.92
2022-12-11T08:43:13.785Z,-2.95
2022-12-11T08:47:16.959Z,-2.95
2022-12-11T08:51:22.926Z,-2.93
2022-12-11T08:55:25.032Z,-2.95
2022-12-11T08:59:27.084Z,-2.93
2022-12-11T09:03:29.110Z,-2.91
2022-12-11T09:07:31.146Z,-2.89
2022-12-11T09:11:35.826Z,-2.91
2022-12-11T09:15:40.784Z,-2.94
2022-12-11T09:19:42.787Z,-2.94
2022-12-11T09:23:45.363Z,-2.88
2022-12-11T09:27:47.270Z,-2.83
2022-12-11T09:31:49.270Z,-2.85
2022-12-11T09:36:02.343Z,-2.81
2022-12-11T09:40:07.802Z,-2.75
2022-12-11T09:44:30.032Z,-2.74
2022-12-11T09:48:34.782Z,-2.74
2022-12-11T09:52:58.848Z,-2.72
2022-12-11T09:57:24.399Z,-2.69
2022-12-11T10:01:45.219Z,-2.70
2022-12-11T10:05:51.666Z,-2.71
2022-12-11T10:10:20.835Z,-2.70
2022-12-11T10:14:43.963Z,-2.68
2022-12-11T10:18:48.239Z,-2.66
2022-12-11T10:22:53.567Z,-2.65
2022-12-11T10:26:59.355Z,-2.65
2022-12-11T10:31:16.702Z,-2.62
2022-12-11T10:35:24.530Z,-2.63
2022-12-11T10:39:27.716Z,-2.62
2022-12-11T10:43:39.274Z,-2.60
2022-12-11T10:47:41.299Z,-2.58
2022-12-11T10:51:43.879Z,-2.60
2022-12-11T10:55:48.082Z,-2.65
2022-12-11T10:59:50.302Z,-2.69
2022-12-11T11:04:31.227Z,-2.69
2022-12-11T11:08:40.297Z,-2.68
2022-12-11T11:12:49.944Z,-2.72
2022-12-11T11:16:55.846Z,-2.73
2022-12-11T11:20:58.303Z,-2.69
2022-12-11T11:25:00.940Z,-2.67
2022-12-11T11:29:03.505Z,-2.68
2022-12-11T11:33:15.354Z,-2.72
2022-12-11T11:37:31.365Z,-2.74
2022-12-11T11:41:45.913Z,-2.74
2022-12-11T11:45:59.587Z,-2.74
2022-12-11T11:50:32.429Z,-2.75
2022-12-11T11:54:39.458Z,-2.78
2022-12-11T11:58:43.560Z,-2.81
2022-12-11T12:02:48.542Z,-2.83
2022-12-11T12:06:56.691Z,-2.89
2022-12-11T12:11:30.393Z,-2.95
2022-12-11T12:15:54.449Z,-3.01
2022-12-11T12:20:10.726Z,-3.04
2022-12-11T12:25:11.292Z,-3.00
2022-12-11T12:29:25.558Z,-3.00
2022-12-11T12:33:53.496Z,-3.03
2022-12-11T12:38:21.304Z,-3.04
2022-12-11T12:42:28.990Z,-3.04
2022-12-11T12:46:33.819Z,-3.10
2022-12-11T12:50:43.373Z,-3.14
2022-12-11T12:55:08.339Z,-3.16
2022-12-11T12:59:20.530Z,-3.20
2022-12-11T13:03:29.897Z,-3.30
2022-12-11T13:07:32.377Z,-3.31
2022-12-11T13:11:35.878Z,-3.30
2022-12-11T13:15:42.506Z,-3.31
2022-12-11T13:19:44.555Z,-3.33
2022-12-11T13:23:46.778Z,-3.34
2022-12-11T13:27:50.243Z,-3.33
2022-12-11T13:31:58.659Z,-3.36
2022-12-11T13:36:15.103Z,-3.40
2022-12-11T13:40:24.098Z,-3.43
2022-12-11T13:44:30.181Z,-3.44
2022-12-11T13:48:34.511Z,-3.42
2022-12-11T13:52:36.403Z,-3.44
2022-12-11T13:56:38.322Z,-3.48
2022-12-11T14:00:40.368Z,-3.50
2022-12-11T14:04:42.640Z,-3.51
2022-12-11T14:08:47.485Z,-3.59
2022-12-11T14:12:55.407Z,-3.65
2022-12-11T14:16:58.021Z,-3.71
2022-12-11T14:21:04.157Z,-3.74
2022-12-11T14:25:26.722Z,-3.77
2022-12-11T14:29:30.320Z,-3.83
2022-12-11T14:33:36.734Z,-3.91
2022-12-11T14:37:39.439Z,-3.96
2022-12-11T14:41:48.873Z,-3.99
2022-12-11T14:45:56.633Z,-3.96
2022-12-11T14:50:11.616Z,-3.95
2022-12-11T14:54:47.686Z,-4.00
2022-12-11T14:58:55.332Z,-3.99
2022-12-11T15:02:59.916Z,-4.00
2022-12-11T15:07:01.902Z,-4.02
2022-12-11T15:11:11.036Z,-4.05
2022-12-11T15:15:16.521Z,-4.04
2022-12-11T15:19:32.604Z,-4.09
2022-12-11T15:23:56.307Z,-4.03
2022-12-11T15:28:00.956Z,-3.99
2022-12-11T15:32:09.055Z,-3.97
2022-12-11T15:36:29.949Z,-3.96
2022-12-11T15:40:32.571Z,-3.93
2022-12-11T15:44:34.633Z,-3.92
2022-12-11T15:48:36.668Z,-3.93
2022-12-11T15:52:38.683Z,-3.93
2022-12-11T15:56:41.018Z,-3.92
2022-12-11T16:00:42.945Z,-3.90
2022-12-11T16:04:45.022Z,-3.92
2022-12-11T16:08:46.964Z,-3.94
2022-12-11T16:12:48.922Z,-3.96
2022-12-11T16:16:51.017Z,-3.96
2022-12-11T16:20:52.987Z,-3.96
2022-12-11T16:24:55.383Z,-3.96
2022-12-11T16:28:57.555Z,-3.96
2022-12-11T16:32:59.547Z,-3.94
2022-12-11T16:37:01.763Z,-3.94
2022-12-11T16:41:04.349Z,-3.97
2022-12-11T16:45:13.744Z,-3.98
2022-12-11T16:49:16.130Z,-3.96
2022-12-11T16:53:18.694Z,-4.01
2022-12-11T16:57:21.180Z,-4.02
2022-12-11T17:01:23.237Z,-4.04
2022-12-11T17:05:25.535Z,-4.04
2022-12-11T17:09:27.615Z,-4.06
2022-12-11T17:13:34.414Z,-4.10
2022-12-11T17:17:38.023Z,-4.08
2022-12-11T17:21:40.222Z,-4.07
2022-12-11T17:25:44.302Z,-4.06
2022-12-11T17:29:49.010Z,-4.12
2022-12-11T17:33:53.518Z,-4.10
2022-12-11T17:37:56.557Z,-4.06
2022-12-11T17:41:58.679Z,-4.09
2022-12-11T17:46:00.711Z,-4.11
2022-12-11T17:50:03.522Z,-4.15
2022-12-11T17:54:05.707Z,-4.17
2022-12-11T17:58:09.322Z,-4.17
2022-12-11T18:02:11.408Z,-4.20
2022-12-11T18:06:15.230Z,-4.22
2022-12-11T18:10:17.630Z,-4.20
2022-12-11T18:14:19.795Z,-4.16
2022-12-11T18:18:21.948Z,-4.16
2022-12-11T18:22:24.963Z,-4.23
2022-12-11T18:26:28.452Z,-4.25
2022-12-11T18:30:30.685Z,-4.27
2022-12-11T18:34:33.026Z,-4.25
2022-12-11T18:38:35.445Z,-4.23
2022-12-11T18:42:37.883Z,-4.25
2022-12-11T18:46:39.991Z,-4.31
2022-12-11T18:50:46.543Z,-4.35
2022-12-11T18:54:49.988Z,-4.37
2022-12-11T18:58:52.064Z,-4.39
2022-12-11T19:02:54.057Z,-4.40
2022-12-11T19:06:56.683Z,-4.39
2022-12-11T19:10:58.677Z,-4.37
2022-12-11T19:15:00.863Z,-4.38
2022-12-11T19:19:09.457Z,-4.37
2022-12-11T19:23:11.413Z,-4.36
2022-12-11T19:27:13.969Z,-4.34
2022-12-11T19:31:19.770Z,-4.32
2022-12-11T19:35:21.914Z,-4.34
2022-12-11T19:39:23.896Z,-4.29
2022-12-11T19:43:26.426Z,-4.27
2022-12-11T19:47:28.357Z,-4.27
2022-12-11T19:51:38.694Z,-4.26
2022-12-11T19:55:41.695Z,-4.30
2022-12-11T19:59:43.622Z,-4.34
2022-12-11T20:03:46.022Z,-4.35
2022-12-11T20:07:48.402Z,-4.32
2022-12-11T20:11:50.435Z,-4.36
2022-12-11T20:15:53.242Z,-4.40
2022-12-11T20:19:55.279Z,-4.40
2022-12-11T20:23:57.365Z,-4.34
2022-12-11T20:27:59.390Z,-4.30
2022-12-11T20:32:02.821Z,-4.33
2022-12-11T20:36:10.102Z,-4.31
2022-12-11T20:40:12.730Z,-4.34
2022-12-11T20:44:14.664Z,-4.33
2022-12-11T20:48:17.128Z,-4.33
2022-12-11T20:52:19.679Z,-4.37
2022-12-11T20:56:21.711Z,-4.39
2022-12-11T21:00:24.167Z,-4.39
2022-12-11T21:04:26.967Z,-4.45
2022-12-11T21:08:28.940Z,-4.43
2022-12-11T21:12:31.841Z,-4.38
2022-12-11T21:16:36.291Z,-4.40
2022-12-11T21:20:38.265Z,-4.35
2022-12-11T21:24:41.125Z,-4.32
2022-12-11T21:28:43.385Z,-4.32
2022-12-11T21:32:45.634Z,-4.36
2022-12-11T21:36:48.088Z,-4.37
2022-12-11T21:40:50.874Z,-4.34
2022-12-11T21:49:15.674Z,-4.43
2022-12-11T21:53:17.652Z,-4.42
2022-12-11T21:57:25.887Z,-4.42
2022-12-11T22:01:30.854Z,-4.42
2022-12-11T22:05:32.873Z,-4.42
2022-12-11T22:09:34.815Z,-4.36
2022-12-11T22:13:36.992Z,-4.27
2022-12-11T22:17:38.970Z,-4.23
2022-12-11T22:21:41.001Z,-4.26
2022-12-11T22:25:42.937Z,-4.24
2022-12-11T22:29:44.891Z,-4.20
2022-12-11T22:33:49.544Z,-4.15
2022-12-11T22:37:51.779Z,-4.13
2022-12-11T22:41:53.800Z,-4.15
2022-12-11T22:45:55.823Z,-4.10
2022-12-11T22:49:57.714Z,-4.08
2022-12-11T22:53:59.815Z,-4.13
2022-12-11T22:58:01.697Z,-4.17
2022-12-11T23:02:03.781Z,-4.20
2022-12-11T23:06:08.394Z,-4.22
2022-12-11T23:10:10.515Z,-4.26
2022-12-11T23:14:17.758Z,-4.27
2022-12-11T23:18:19.840Z,-4.27
2022-12-11T23:22:21.808Z,-4.28
2022-12-11T23:26:24.363Z,-4.26
2022-12-11T23:30:26.409Z,-4.23
2022-12-11T23:34:28.342Z,-4.19
2022-12-11T23:38:30.788Z,-4.17
2022-12-11T23:42:33.535Z,-4.16
2022-12-11T23:46:36.032Z,-4.17
2022-12-11T23:50:39.214Z,-4.16
2022-12-11T23:54:41.107Z,-4.16
2022-12-11T23:58:43.172Z,-4.19
